Airfield :
LOGIN :

Register | Disclaimer

   EN    FR    IT 

 










Legend :    VFR   Marginal VFR   IFR   Intensive IFR   Very Intensive IFR
Visi :
Ceiling :
>= 8 km
>= 3000ft
5 to 8 km
1000 to 3000 ft
1500m to 5 km
500 to 1000 ft
800 to 1500m
200 to 500 ft
< 800m
< 200 ft
Symbols :   Thunderstorms  Fog  Heavy snow  Heavy precipitations  Wind > 20 kt
SIGMETs :     Misc.  Thunderstorms  Icing  Turbulence  Mountain Waves  Volcanic Ashes







- Airport Elevation : 24 ft
- IATA code : FAO


LPFR - Faro

CURRENT METAR :
  • 170400Z 06010KT 9999 SCT020 13/10 Q1020

EXPIRED METARs :
  • 170330Z 05008KT 9999 SCT020 12/10 Q1021
  • 170300Z 07009KT 9999 SCT020 13/10 Q1021
  • 170230Z 07009KT 9999 SCT020 12/10 Q1021
  • 170200Z 05005KT CAVOK 12/10 Q1021
  • 170130Z 05007KT CAVOK 12/10 Q1022

TAF TAF LPFR
Valid from the 17 at 00:00 until the 18 at 00:00 UTC


162300Z 1700/1724 07008KT CAVOK
BECMG 1703/1706 9999 SCT018
PROB30
TEMPO 1703/1712 6000 -RA BKN015
BECMG 1715/1718 16013KT SCT012 BKN025
No reported NOTAMs for that airfield.



MET'MAP, your aeronautical weather chart ! - Copyright ORBIFLY December 2007 - Disclaimer

ORBIFLY MET'MAP TEAM :

Programming & Development : Alexandra Zaïnal
Concept & Development : Baudouin d'Aumeries
Co-Development & Prog : Marc-Olivier Méhu
Technical & hardware support : Manuel Goepfert

Contact : metmap@orbifly.com




SOURCES & CREDITS :

   NOAA